sensor_id;sensor_type;location;lat;lon;timestamp;temperature;humidity
20911;DHT22;10615;42.702;23.314;2023-12-22T00:00:44;3.20;92.50
20911;DHT22;10615;42.702;23.314;2023-12-22T00:01:47;3.20;92.50
20911;DHT22;10615;42.702;23.314;2023-12-22T00:02:48;3.20;92.60
20911;DHT22;10615;42.702;23.314;2023-12-22T00:03:49;3.20;92.80
20911;DHT22;10615;42.702;23.314;2023-12-22T00:04:50;3.20;92.80
20911;DHT22;10615;42.702;23.314;2023-12-22T00:05:51;3.30;93.00
20911;DHT22;10615;42.702;23.314;2023-12-22T00:06:52;3.30;93.10
20911;DHT22;10615;42.702;23.314;2023-12-22T00:07:52;3.30;93.10
20911;DHT22;10615;42.702;23.314;2023-12-22T00:08:53;3.40;93.10
20911;DHT22;10615;42.702;23.314;2023-12-22T00:09:54;3.40;93.10
20911;DHT22;10615;42.702;23.314;2023-12-22T00:10:55;3.50;92.90
20911;DHT22;10615;42.702;23.314;2023-12-22T00:11:55;3.40;92.80
20911;DHT22;10615;42.702;23.314;2023-12-22T00:12:56;3.40;92.60
20911;DHT22;10615;42.702;23.314;2023-12-22T00:13:57;3.40;92.50
20911;DHT22;10615;42.702;23.314;2023-12-22T00:14:58;3.40;92.50
20911;DHT22;10615;42.702;23.314;2023-12-22T00:15:59;3.30;92.50
20911;DHT22;10615;42.702;23.314;2023-12-22T00:17:00;3.30;92.50
20911;DHT22;10615;42.702;23.314;2023-12-22T00:18:01;3.30;92.70
20911;DHT22;10615;42.702;23.314;2023-12-22T00:19:02;3.30;92.70
20911;DHT22;10615;42.702;23.314;2023-12-22T00:20:04;3.30;92.70
20911;DHT22;10615;42.702;23.314;2023-12-22T00:21:05;3.20;92.80
20911;DHT22;10615;42.702;23.314;2023-12-22T00:22:09;3.20;92.80
20911;DHT22;10615;42.702;23.314;2023-12-22T00:23:10;3.20;92.80
20911;DHT22;10615;42.702;23.314;2023-12-22T00:24:11;3.20;92.90
20911;DHT22;10615;42.702;23.314;2023-12-22T00:25:12;3.20;93.00
20911;DHT22;10615;42.702;23.314;2023-12-22T00:26:12;3.40;93.20
20911;DHT22;10615;42.702;23.314;2023-12-22T00:27:15;3.30;93.20
20911;DHT22;10615;42.702;23.314;2023-12-22T00:28:16;3.30;93.30
20911;DHT22;10615;42.702;23.314;2023-12-22T00:29:16;3.40;93.40
20911;DHT22;10615;42.702;23.314;2023-12-22T00:30:17;3.40;93.40
20911;DHT22;10615;42.702;23.314;2023-12-22T00:31:18;3.40;93.40
20911;DHT22;10615;42.702;23.314;2023-12-22T00:32:19;3.40;93.40
20911;DHT22;10615;42.702;23.314;2023-12-22T00:33:19;3.50;93.40
20911;DHT22;10615;42.702;23.314;2023-12-22T00:34:22;3.40;93.30
20911;DHT22;10615;42.702;23.314;2023-12-22T00:35:23;3.40;93.20
20911;DHT22;10615;42.702;23.314;2023-12-22T00:36:23;3.40;93.10
20911;DHT22;10615;42.702;23.314;2023-12-22T00:37:25;3.40;93.10
20911;DHT22;10615;42.702;23.314;2023-12-22T00:38:25;3.40;93.20
20911;DHT22;10615;42.702;23.314;2023-12-22T00:39:26;3.30;93.20
20911;DHT22;10615;42.702;23.314;2023-12-22T00:40:27;3.30;93.30
20911;DHT22;10615;42.702;23.314;2023-12-22T00:41:27;3.30;93.30
20911;DHT22;10615;42.702;23.314;2023-12-22T00:42:28;3.30;93.20
20911;DHT22;10615;42.702;23.314;2023-12-22T00:43:29;3.30;93.30
20911;DHT22;10615;42.702;23.314;2023-12-22T00:44:30;3.30;93.40
20911;DHT22;10615;42.702;23.314;2023-12-22T00:45:30;3.30;93.50
20911;DHT22;10615;42.702;23.314;2023-12-22T00:46:31;3.40;93.70
20911;DHT22;10615;42.702;23.314;2023-12-22T00:47:32;3.40;93.70
20911;DHT22;10615;42.702;23.314;2023-12-22T00:48:36;3.40;93.80
20911;DHT22;10615;42.702;23.314;2023-12-22T00:49:36;3.40;93.80
20911;DHT22;10615;42.702;23.314;2023-12-22T00:50:37;3.50;93.70
20911;DHT22;10615;42.702;23.314;2023-12-22T00:51:38;3.40;93.60
20911;DHT22;10615;42.702;23.314;2023-12-22T00:52:38;3.40;93.50
20911;DHT22;10615;42.702;23.314;2023-12-22T00:53:39;3.40;93.40
20911;DHT22;10615;42.702;23.314;2023-12-22T00:54:40;3.40;93.30
20911;DHT22;10615;42.702;23.314;2023-12-22T00:55:40;3.40;93.40
20911;DHT22;10615;42.702;23.314;2023-12-22T00:56:41;3.40;93.40
20911;DHT22;10615;42.702;23.314;2023-12-22T00:57:42;3.40;93.30
20911;DHT22;10615;42.702;23.314;2023-12-22T00:58:43;3.30;93.30
20911;DHT22;10615;42.702;23.314;2023-12-22T00:59:44;3.30;93.40
20911;DHT22;10615;42.702;23.314;2023-12-22T01:00:48;3.30;93.50
20911;DHT22;10615;42.702;23.314;2023-12-22T01:01:49;3.30;93.50
20911;DHT22;10615;42.702;23.314;2023-12-22T01:02:49;3.30;93.50
20911;DHT22;10615;42.702;23.314;2023-12-22T01:03:50;3.30;93.50
20911;DHT22;10615;42.702;23.314;2023-12-22T01:04:51;3.30;93.50
20911;DHT22;10615;42.702;23.314;2023-12-22T01:05:51;3.30;93.50
20911;DHT22;10615;42.702;23.314;2023-12-22T01:06:52;3.30;93.50
20911;DHT22;10615;42.702;23.314;2023-12-22T01:07:53;3.30;93.50
20911;DHT22;10615;42.702;23.314;2023-12-22T01:08:54;3.40;93.50
20911;DHT22;10615;42.702;23.314;2023-12-22T01:09:55;3.40;93.50
20911;DHT22;10615;42.702;23.314;2023-12-22T01:10:55;3.40;93.50
20911;DHT22;10615;42.702;23.314;2023-12-22T01:11:56;3.40;93.60
20911;DHT22;10615;42.702;23.314;2023-12-22T01:12:57;3.50;93.70
20911;DHT22;10615;42.702;23.314;2023-12-22T01:13:58;3.50;93.70
20911;DHT22;10615;42.702;23.314;2023-12-22T01:14:58;3.60;93.80
20911;DHT22;10615;42.702;23.314;2023-12-22T01:15:59;3.60;93.90
20911;DHT22;10615;42.702;23.314;2023-12-22T01:17:00;3.70;93.90
20911;DHT22;10615;42.702;23.314;2023-12-22T01:18:01;3.70;93.80
20911;DHT22;10615;42.702;23.314;2023-12-22T01:19:01;3.80;93.70
20911;DHT22;10615;42.702;23.314;2023-12-22T01:20:02;3.80;93.50
20911;DHT22;10615;42.702;23.314;2023-12-22T01:21:03;3.80;93.50
20911;DHT22;10615;42.702;23.314;2023-12-22T01:22:04;3.80;93.30
20911;DHT22;10615;42.702;23.314;2023-12-22T01:23:05;3.70;93.20
20911;DHT22;10615;42.702;23.314;2023-12-22T01:24:06;3.70;93.10
20911;DHT22;10615;42.702;23.314;2023-12-22T01:25:06;3.70;93.10
20911;DHT22;10615;42.702;23.314;2023-12-22T01:26:07;3.70;93.10
20911;DHT22;10615;42.702;23.314;2023-12-22T01:27:11;3.70;93.00
20911;DHT22;10615;42.702;23.314;2023-12-22T01:28:12;3.70;93.00
20911;DHT22;10615;42.702;23.314;2023-12-22T01:29:13;3.60;93.00
20911;DHT22;10615;42.702;23.314;2023-12-22T01:30:14;3.60;92.90
20911;DHT22;10615;42.702;23.314;2023-12-22T01:31:15;3.50;92.90
20911;DHT22;10615;42.702;23.314;2023-12-22T01:32:15;3.50;93.00
20911;DHT22;10615;42.702;23.314;2023-12-22T01:33:16;3.50;93.10
20911;DHT22;10615;42.702;23.314;2023-12-22T01:34:17;3.50;93.20
20911;DHT22;10615;42.702;23.314;2023-12-22T01:35:18;3.50;93.20
20911;DHT22;10615;42.702;23.314;2023-12-22T01:36:18;3.50;93.20
20911;DHT22;10615;42.702;23.314;2023-12-22T01:37:19;3.60;93.30
20911;DHT22;10615;42.702;23.314;2023-12-22T01:38:20;3.60;93.40
20911;DHT22;10615;42.702;23.314;2023-12-22T01:39:21;3.60;93.50
20911;DHT22;10615;42.702;23.314;2023-12-22T01:40:22;3.70;93.60
20911;DHT22;10615;42.702;23.314;2023-12-22T01:41:22;3.80;93.70
20911;DHT22;10615;42.702;23.314;2023-12-22T01:42:23;3.80;93.60
20911;DHT22;10615;42.702;23.314;2023-12-22T01:43:24;3.90;93.60
20911;DHT22;10615;42.702;23.314;2023-12-22T01:44:24;3.90;93.50
20911;DHT22;10615;42.702;23.314;2023-12-22T01:45:25;3.90;93.40
20911;DHT22;10615;42.702;23.314;2023-12-22T01:46:26;3.90;93.40
20911;DHT22;10615;42.702;23.314;2023-12-22T01:47:27;3.90;93.20
20911;DHT22;10615;42.702;23.314;2023-12-22T01:48:28;3.90;93.00
20911;DHT22;10615;42.702;23.314;2023-12-22T01:49:29;3.90;93.00
20911;DHT22;10615;42.702;23.314;2023-12-22T01:50:30;3.90;93.00
20911;DHT22;10615;42.702;23.314;2023-12-22T01:51:33;3.90;93.00
20911;DHT22;10615;42.702;23.314;2023-12-22T01:52:34;3.90;92.90
20911;DHT22;10615;42.702;23.314;2023-12-22T01:53:36;3.80;92.90
20911;DHT22;10615;42.702;23.314;2023-12-22T01:54:38;3.80;92.80
20911;DHT22;10615;42.702;23.314;2023-12-22T01:55:39;3.80;92.80
20911;DHT22;10615;42.702;23.314;2023-12-22T01:56:40;3.80;92.70
20911;DHT22;10615;42.702;23.314;2023-12-22T01:57:41;3.70;92.80
20911;DHT22;10615;42.702;23.314;2023-12-22T01:58:42;3.70;92.90
20911;DHT22;10615;42.702;23.314;2023-12-22T01:59:44;3.60;93.00
20911;DHT22;10615;42.702;23.314;2023-12-22T02:00:45;3.60;93.00
20911;DHT22;10615;42.702;23.314;2023-12-22T02:01:46;3.60;93.10
20911;DHT22;10615;42.702;23.314;2023-12-22T02:02:47;3.60;93.30
20911;DHT22;10615;42.702;23.314;2023-12-22T02:03:49;3.60;93.50
20911;DHT22;10615;42.702;23.314;2023-12-22T02:04:53;3.70;93.70
20911;DHT22;10615;42.702;23.314;2023-12-22T02:05:54;3.70;93.80
20911;DHT22;10615;42.702;23.314;2023-12-22T02:06:54;3.80;93.90
20911;DHT22;10615;42.702;23.314;2023-12-22T02:07:55;3.80;94.00
20911;DHT22;10615;42.702;23.314;2023-12-22T02:08:57;3.80;93.90
20911;DHT22;10615;42.702;23.314;2023-12-22T02:09:58;3.90;94.00
20911;DHT22;10615;42.702;23.314;2023-12-22T02:10:59;4.00;94.00
20911;DHT22;10615;42.702;23.314;2023-12-22T02:12:00;4.00;93.80
20911;DHT22;10615;42.702;23.314;2023-12-22T02:13:00;4.00;93.60
20911;DHT22;10615;42.702;23.314;2023-12-22T02:14:01;3.90;93.30
20911;DHT22;10615;42.702;23.314;2023-12-22T02:15:02;4.00;93.20
20911;DHT22;10615;42.702;23.314;2023-12-22T02:16:11;3.90;93.20
20911;DHT22;10615;42.702;23.314;2023-12-22T02:17:20;4.00;93.20
20911;DHT22;10615;42.702;23.314;2023-12-22T02:18:27;3.90;93.10
20911;DHT22;10615;42.702;23.314;2023-12-22T02:19:42;3.90;93.10
20911;DHT22;10615;42.702;23.314;2023-12-22T02:20:43;3.90;93.00
20911;DHT22;10615;42.702;23.314;2023-12-22T02:22:04;3.90;93.10
20911;DHT22;10615;42.702;23.314;2023-12-22T02:23:05;3.90;93.20
20911;DHT22;10615;42.702;23.314;2023-12-22T02:24:06;3.90;93.30
20911;DHT22;10615;42.702;23.314;2023-12-22T02:25:07;3.90;93.40
20911;DHT22;10615;42.702;23.314;2023-12-22T02:26:36;3.90;93.40
20911;DHT22;10615;42.702;23.314;2023-12-22T02:27:48;3.90;93.30
20911;DHT22;10615;42.702;23.314;2023-12-22T02:28:50;3.90;93.30
20911;DHT22;10615;42.702;23.314;2023-12-22T02:31:37;3.80;93.30
20911;DHT22;10615;42.702;23.314;2023-12-22T02:32:48;3.70;93.20
20911;DHT22;10615;42.702;23.314;2023-12-22T02:33:50;3.60;93.20
20911;DHT22;10615;42.702;23.314;2023-12-22T02:34:55;3.60;93.20
20911;DHT22;10615;42.702;23.314;2023-12-22T02:36:03;3.50;93.20
20911;DHT22;10615;42.702;23.314;2023-12-22T02:37:08;3.50;93.30
20911;DHT22;10615;42.702;23.314;2023-12-22T02:38:12;3.40;93.40
20911;DHT22;10615;42.702;23.314;2023-12-22T02:39:14;3.30;93.40
20911;DHT22;10615;42.702;23.314;2023-12-22T02:40:18;3.30;93.50
20911;DHT22;10615;42.702;23.314;2023-12-22T02:41:20;3.30;93.70
20911;DHT22;10615;42.702;23.314;2023-12-22T02:42:21;3.20;93.80
20911;DHT22;10615;42.702;23.314;2023-12-22T02:43:24;3.20;93.90
20911;DHT22;10615;42.702;23.314;2023-12-22T02:44:26;3.20;94.10
20911;DHT22;10615;42.702;23.314;2023-12-22T02:45:27;3.20;94.20
20911;DHT22;10615;42.702;23.314;2023-12-22T02:46:28;3.20;94.40
20911;DHT22;10615;42.702;23.314;2023-12-22T02:47:29;3.30;94.50
20911;DHT22;10615;42.702;23.314;2023-12-22T02:48:29;3.30;94.60
20911;DHT22;10615;42.702;23.314;2023-12-22T02:49:30;3.40;94.70
20911;DHT22;10615;42.702;23.314;2023-12-22T02:50:31;3.40;94.80
20911;DHT22;10615;42.702;23.314;2023-12-22T02:51:31;3.40;94.80
20911;DHT22;10615;42.702;23.314;2023-12-22T02:52:32;3.40;94.70
20911;DHT22;10615;42.702;23.314;2023-12-22T02:53:34;3.40;94.50
20911;DHT22;10615;42.702;23.314;2023-12-22T02:54:34;3.30;94.50
20911;DHT22;10615;42.702;23.314;2023-12-22T02:55:35;3.30;94.40
20911;DHT22;10615;42.702;23.314;2023-12-22T02:56:36;3.20;94.40
20911;DHT22;10615;42.702;23.314;2023-12-22T02:57:36;3.20;94.90
20911;DHT22;10615;42.702;23.314;2023-12-22T02:58:37;3.10;94.60
20911;DHT22;10615;42.702;23.314;2023-12-22T02:59:38;3.10;94.60
20911;DHT22;10615;42.702;23.314;2023-12-22T03:00:39;3.10;94.60
20911;DHT22;10615;42.702;23.314;2023-12-22T03:01:40;3.10;94.80
20911;DHT22;10615;42.702;23.314;2023-12-22T03:02:41;3.10;94.90
20911;DHT22;10615;42.702;23.314;2023-12-22T03:03:42;3.10;95.00
20911;DHT22;10615;42.702;23.314;2023-12-22T03:04:42;3.10;95.00
20911;DHT22;10615;42.702;23.314;2023-12-22T03:05:43;3.10;95.20
20911;DHT22;10615;42.702;23.314;2023-12-22T03:06:44;3.10;95.30
20911;DHT22;10615;42.702;23.314;2023-12-22T03:07:45;3.20;95.40
20911;DHT22;10615;42.702;23.314;2023-12-22T03:08:45;3.20;95.40
20911;DHT22;10615;42.702;23.314;2023-12-22T03:09:46;3.30;95.50
20911;DHT22;10615;42.702;23.314;2023-12-22T03:10:47;3.30;95.40
20911;DHT22;10615;42.702;23.314;2023-12-22T03:11:48;3.30;95.30
20911;DHT22;10615;42.702;23.314;2023-12-22T03:12:49;3.30;95.10
20911;DHT22;10615;42.702;23.314;2023-12-22T03:13:50;3.30;95.00
20911;DHT22;10615;42.702;23.314;2023-12-22T03:14:50;3.20;95.00
20911;DHT22;10615;42.702;23.314;2023-12-22T03:15:51;3.20;94.90
20911;DHT22;10615;42.702;23.314;2023-12-22T03:16:52;3.20;94.90
20911;DHT22;10615;42.702;23.314;2023-12-22T03:17:53;3.20;94.90
20911;DHT22;10615;42.702;23.314;2023-12-22T03:18:53;3.20;95.00
20911;DHT22;10615;42.702;23.314;2023-12-22T03:19:54;3.20;95.00
20911;DHT22;10615;42.702;23.314;2023-12-22T03:20:55;3.20;95.00
20911;DHT22;10615;42.702;23.314;2023-12-22T03:21:56;3.20;95.00
20911;DHT22;10615;42.702;23.314;2023-12-22T03:22:59;3.20;95.00
20911;DHT22;10615;42.702;23.314;2023-12-22T03:24:00;3.30;95.10
20911;DHT22;10615;42.702;23.314;2023-12-22T03:25:01;3.30;95.10
20911;DHT22;10615;42.702;23.314;2023-12-22T03:26:04;3.30;95.20
20911;DHT22;10615;42.702;23.314;2023-12-22T03:27:05;3.40;95.30
20911;DHT22;10615;42.702;23.314;2023-12-22T03:28:06;3.40;95.40
20911;DHT22;10615;42.702;23.314;2023-12-22T03:29:07;3.50;95.40
20911;DHT22;10615;42.702;23.314;2023-12-22T03:30:08;3.50;95.30
20911;DHT22;10615;42.702;23.314;2023-12-22T03:31:09;3.50;95.20
20911;DHT22;10615;42.702;23.314;2023-12-22T03:32:10;3.50;94.90
20911;DHT22;10615;42.702;23.314;2023-12-22T03:33:11;3.50;94.70
20911;DHT22;10615;42.702;23.314;2023-12-22T03:34:12;3.50;94.60
20911;DHT22;10615;42.702;23.314;2023-12-22T03:35:13;3.40;94.50
20911;DHT22;10615;42.702;23.314;2023-12-22T03:36:14;3.40;94.50
20911;DHT22;10615;42.702;23.314;2023-12-22T03:37:15;3.40;94.60
20911;DHT22;10615;42.702;23.314;2023-12-22T03:38:16;3.30;94.60
20911;DHT22;10615;42.702;23.314;2023-12-22T03:39:17;3.30;94.50
20911;DHT22;10615;42.702;23.314;2023-12-22T03:40:17;3.30;94.50
20911;DHT22;10615;42.702;23.314;2023-12-22T03:41:18;3.30;94.50
20911;DHT22;10615;42.702;23.314;2023-12-22T03:42:19;3.20;94.90
20911;DHT22;10615;42.702;23.314;2023-12-22T03:43:20;3.30;94.70
20911;DHT22;10615;42.702;23.314;2023-12-22T03:44:20;3.20;94.70
20911;DHT22;10615;42.702;23.314;2023-12-22T03:45:21;3.20;94.90
20911;DHT22;10615;42.702;23.314;2023-12-22T03:46:22;3.30;95.00
20911;DHT22;10615;42.702;23.314;2023-12-22T03:47:23;3.30;95.10
20911;DHT22;10615;42.702;23.314;2023-12-22T03:48:24;3.40;95.20
20911;DHT22;10615;42.702;23.314;2023-12-22T03:49:25;3.40;95.30
20911;DHT22;10615;42.702;23.314;2023-12-22T03:50:25;3.40;95.30
20911;DHT22;10615;42.702;23.314;2023-12-22T03:51:26;3.50;95.40
20911;DHT22;10615;42.702;23.314;2023-12-22T03:52:27;3.50;95.30
20911;DHT22;10615;42.702;23.314;2023-12-22T03:53:28;3.50;95.10
20911;DHT22;10615;42.702;23.314;2023-12-22T03:54:28;3.50;95.00
20911;DHT22;10615;42.702;23.314;2023-12-22T03:55:29;3.50;94.80
20911;DHT22;10615;42.702;23.314;2023-12-22T03:56:30;3.50;94.70
20911;DHT22;10615;42.702;23.314;2023-12-22T03:57:30;3.50;94.60
20911;DHT22;10615;42.702;23.314;2023-12-22T03:58:31;3.50;94.70
20911;DHT22;10615;42.702;23.314;2023-12-22T03:59:32;3.50;94.70
20911;DHT22;10615;42.702;23.314;2023-12-22T04:00:33;3.50;94.70
20911;DHT22;10615;42.702;23.314;2023-12-22T04:01:34;3.40;94.70
20911;DHT22;10615;42.702;23.314;2023-12-22T04:02:35;3.40;94.70
20911;DHT22;10615;42.702;23.314;2023-12-22T04:03:36;3.40;94.80
20911;DHT22;10615;42.702;23.314;2023-12-22T04:04:40;3.40;95.00
20911;DHT22;10615;42.702;23.314;2023-12-22T04:05:40;3.40;95.10
20911;DHT22;10615;42.702;23.314;2023-12-22T04:06:41;3.40;95.20
20911;DHT22;10615;42.702;23.314;2023-12-22T04:07:42;3.40;95.30
20911;DHT22;10615;42.702;23.314;2023-12-22T04:08:43;3.40;95.50
20911;DHT22;10615;42.702;23.314;2023-12-22T04:09:43;3.50;95.70
20911;DHT22;10615;42.702;23.314;2023-12-22T04:10:44;3.50;95.80
20911;DHT22;10615;42.702;23.314;2023-12-22T04:11:45;3.60;95.80
20911;DHT22;10615;42.702;23.314;2023-12-22T04:12:45;3.70;95.90
20911;DHT22;10615;42.702;23.314;2023-12-22T04:13:46;3.70;95.90
20911;DHT22;10615;42.702;23.314;2023-12-22T04:14:47;3.80;95.90
20911;DHT22;10615;42.702;23.314;2023-12-22T04:15:48;3.70;95.70
20911;DHT22;10615;42.702;23.314;2023-12-22T04:16:48;3.80;95.60
20911;DHT22;10615;42.702;23.314;2023-12-22T04:17:49;3.80;95.50
20911;DHT22;10615;42.702;23.314;2023-12-22T04:18:50;3.80;95.40
20911;DHT22;10615;42.702;23.314;2023-12-22T04:19:51;3.80;95.40
20911;DHT22;10615;42.702;23.314;2023-12-22T04:20:53;3.80;95.40
20911;DHT22;10615;42.702;23.314;2023-12-22T04:21:55;3.80;95.40
20911;DHT22;10615;42.702;23.314;2023-12-22T04:22:56;3.80;95.40
20911;DHT22;10615;42.702;23.314;2023-12-22T04:23:57;3.80;95.50
20911;DHT22;10615;42.702;23.314;2023-12-22T04:24:57;3.80;95.60
20911;DHT22;10615;42.702;23.314;2023-12-22T04:25:58;3.70;95.70
20911;DHT22;10615;42.702;23.314;2023-12-22T04:26:59;3.80;95.80
20911;DHT22;10615;42.702;23.314;2023-12-22T04:28:00;3.80;95.90
20911;DHT22;10615;42.702;23.314;2023-12-22T04:29:01;3.80;96.00
20911;DHT22;10615;42.702;23.314;2023-12-22T04:30:01;3.70;96.10
20911;DHT22;10615;42.702;23.314;2023-12-22T04:31:02;3.70;96.20
20911;DHT22;10615;42.702;23.314;2023-12-22T04:32:03;3.70;96.30
20911;DHT22;10615;42.702;23.314;2023-12-22T04:33:04;3.70;96.30
20911;DHT22;10615;42.702;23.314;2023-12-22T04:34:05;3.70;96.40
20911;DHT22;10615;42.702;23.314;2023-12-22T04:35:05;3.70;96.60
20911;DHT22;10615;42.702;23.314;2023-12-22T04:36:06;3.70;96.70
20911;DHT22;10615;42.702;23.314;2023-12-22T04:37:07;3.80;96.90
20911;DHT22;10615;42.702;23.314;2023-12-22T04:38:08;3.80;97.10
20911;DHT22;10615;42.702;23.314;2023-12-22T04:39:09;3.90;97.10
20911;DHT22;10615;42.702;23.314;2023-12-22T04:40:10;3.90;97.30
20911;DHT22;10615;42.702;23.314;2023-12-22T04:41:11;4.00;97.30
20911;DHT22;10615;42.702;23.314;2023-12-22T04:42:11;3.90;97.20
20911;DHT22;10615;42.702;23.314;2023-12-22T04:43:12;3.90;97.10
20911;DHT22;10615;42.702;23.314;2023-12-22T04:44:13;3.90;97.00
20911;DHT22;10615;42.702;23.314;2023-12-22T04:45:14;3.90;97.00
20911;DHT22;10615;42.702;23.314;2023-12-22T04:46:14;3.80;97.10
20911;DHT22;10615;42.702;23.314;2023-12-22T04:47:15;3.90;97.20
20911;DHT22;10615;42.702;23.314;2023-12-22T04:48:16;3.90;97.30
20911;DHT22;10615;42.702;23.314;2023-12-22T04:49:17;3.90;97.40
20911;DHT22;10615;42.702;23.314;2023-12-22T04:50:18;3.90;97.40
20911;DHT22;10615;42.702;23.314;2023-12-22T04:51:19;3.90;97.50
20911;DHT22;10615;42.702;23.314;2023-12-22T04:52:20;3.80;97.70
20911;DHT22;10615;42.702;23.314;2023-12-22T04:53:21;3.80;97.70
20911;DHT22;10615;42.702;23.314;2023-12-22T04:54:21;3.80;97.80
20911;DHT22;10615;42.702;23.314;2023-12-22T04:55:22;3.80;97.90
20911;DHT22;10615;42.702;23.314;2023-12-22T04:56:23;3.80;98.10
20911;DHT22;10615;42.702;23.314;2023-12-22T04:57:24;3.80;98.30
20911;DHT22;10615;42.702;23.314;2023-12-22T04:58:25;3.80;98.40
20911;DHT22;10615;42.702;23.314;2023-12-22T04:59:25;3.90;98.80
20911;DHT22;10615;42.702;23.314;2023-12-22T05:00:26;3.90;99.00
20911;DHT22;10615;42.702;23.314;2023-12-22T05:01:27;3.90;99.20
20911;DHT22;10615;42.702;23.314;2023-12-22T05:02:28;4.00;99.50
20911;DHT22;10615;42.702;23.314;2023-12-22T05:03:29;4.00;99.70
20911;DHT22;10615;42.702;23.314;2023-12-22T05:04:30;4.00;99.80
20911;DHT22;10615;42.702;23.314;2023-12-22T05:05:31;4.10;99.90
20911;DHT22;10615;42.702;23.314;2023-12-22T05:06:31;4.10;99.90
20911;DHT22;10615;42.702;23.314;2023-12-22T05:07:32;4.10;99.90
20911;DHT22;10615;42.702;23.314;2023-12-22T05:08:33;4.10;99.80
20911;DHT22;10615;42.702;23.314;2023-12-22T05:09:34;4.00;99.60
20911;DHT22;10615;42.702;23.314;2023-12-22T05:10:35;4.00;99.60
20911;DHT22;10615;42.702;23.314;2023-12-22T05:11:36;4.00;99.50
20911;DHT22;10615;42.702;23.314;2023-12-22T05:12:37;4.00;99.40
20911;DHT22;10615;42.702;23.314;2023-12-22T05:13:37;4.00;99.20
20911;DHT22;10615;42.702;23.314;2023-12-22T05:14:38;4.00;99.10
20911;DHT22;10615;42.702;23.314;2023-12-22T05:15:39;4.00;99.10
20911;DHT22;10615;42.702;23.314;2023-12-22T05:16:40;4.00;99.00
20911;DHT22;10615;42.702;23.314;2023-12-22T05:17:40;4.00;99.10
20911;DHT22;10615;42.702;23.314;2023-12-22T05:18:41;4.00;99.30
20911;DHT22;10615;42.702;23.314;2023-12-22T05:19:42;4.00;99.40
20911;DHT22;10615;42.702;23.314;2023-12-22T05:20:42;4.10;99.40
20911;DHT22;10615;42.702;23.314;2023-12-22T05:21:44;4.10;99.50
20911;DHT22;10615;42.702;23.314;2023-12-22T05:22:45;4.10;99.60
20911;DHT22;10615;42.702;23.314;2023-12-22T05:23:45;4.20;99.70
20911;DHT22;10615;42.702;23.314;2023-12-22T05:24:46;4.20;99.80
20911;DHT22;10615;42.702;23.314;2023-12-22T05:25:47;4.20;99.70
20911;DHT22;10615;42.702;23.314;2023-12-22T05:26:48;4.20;99.50
20911;DHT22;10615;42.702;23.314;2023-12-22T05:27:48;4.20;99.30
20911;DHT22;10615;42.702;23.314;2023-12-22T05:28:49;4.20;99.10
20911;DHT22;10615;42.702;23.314;2023-12-22T05:29:50;4.20;99.10
20911;DHT22;10615;42.702;23.314;2023-12-22T05:30:51;4.30;99.20
20911;DHT22;10615;42.702;23.314;2023-12-22T05:31:52;4.30;99.20
20911;DHT22;10615;42.702;23.314;2023-12-22T05:32:52;4.30;99.40
20911;DHT22;10615;42.702;23.314;2023-12-22T05:33:54;4.40;99.40
20911;DHT22;10615;42.702;23.314;2023-12-22T05:34:55;4.40;99.40
20911;DHT22;10615;42.702;23.314;2023-12-22T05:35:56;4.40;99.40
20911;DHT22;10615;42.702;23.314;2023-12-22T05:36:57;4.40;99.40
20911;DHT22;10615;42.702;23.314;2023-12-22T05:37:57;4.40;99.40
20911;DHT22;10615;42.702;23.314;2023-12-22T05:38:58;4.40;99.30
20911;DHT22;10615;42.702;23.314;2023-12-22T05:39:59;4.50;99.50
20911;DHT22;10615;42.702;23.314;2023-12-22T05:41:00;4.50;99.60
20911;DHT22;10615;42.702;23.314;2023-12-22T05:42:00;4.60;99.70
20911;DHT22;10615;42.702;23.314;2023-12-22T05:43:01;4.60;99.70
20911;DHT22;10615;42.702;23.314;2023-12-22T05:44:02;4.70;99.60
20911;DHT22;10615;42.702;23.314;2023-12-22T05:45:03;4.70;99.40
20911;DHT22;10615;42.702;23.314;2023-12-22T05:46:04;4.70;99.30
20911;DHT22;10615;42.702;23.314;2023-12-22T05:47:05;4.60;99.10
20911;DHT22;10615;42.702;23.314;2023-12-22T05:48:06;4.60;98.90
20911;DHT22;10615;42.702;23.314;2023-12-22T05:49:07;4.60;98.70
20911;DHT22;10615;42.702;23.314;2023-12-22T05:50:08;4.50;98.80
20911;DHT22;10615;42.702;23.314;2023-12-22T05:51:09;4.50;98.80
20911;DHT22;10615;42.702;23.314;2023-12-22T05:52:13;4.50;98.80
20911;DHT22;10615;42.702;23.314;2023-12-22T05:53:14;4.50;98.80
20911;DHT22;10615;42.702;23.314;2023-12-22T05:54:15;4.40;98.80
20911;DHT22;10615;42.702;23.314;2023-12-22T05:55:17;4.40;98.90
20911;DHT22;10615;42.702;23.314;2023-12-22T05:56:21;4.40;99.00
20911;DHT22;10615;42.702;23.314;2023-12-22T05:57:21;4.30;99.00
20911;DHT22;10615;42.702;23.314;2023-12-22T05:58:22;4.30;99.10
20911;DHT22;10615;42.702;23.314;2023-12-22T05:59:23;4.30;99.20
20911;DHT22;10615;42.702;23.314;2023-12-22T06:00:24;4.30;99.40
20911;DHT22;10615;42.702;23.314;2023-12-22T06:01:24;4.30;99.60
20911;DHT22;10615;42.702;23.314;2023-12-22T06:02:25;4.30;99.60
20911;DHT22;10615;42.702;23.314;2023-12-22T06:03:26;4.30;99.80
20911;DHT22;10615;42.702;23.314;2023-12-22T06:04:27;4.20;99.90
20911;DHT22;10615;42.702;23.314;2023-12-22T06:05:27;4.20;99.90
20911;DHT22;10615;42.702;23.314;2023-12-22T06:06:28;4.30;99.90
20911;DHT22;10615;42.702;23.314;2023-12-22T06:07:30;4.30;99.90
20911;DHT22;10615;42.702;23.314;2023-12-22T06:08:32;4.20;99.90
20911;DHT22;10615;42.702;23.314;2023-12-22T06:09:33;4.20;99.90
20911;DHT22;10615;42.702;23.314;2023-12-22T06:10:33;4.10;99.80
20911;DHT22;10615;42.702;23.314;2023-12-22T06:11:34;4.10;99.90
20911;DHT22;10615;42.702;23.314;2023-12-22T06:12:35;4.10;99.90
20911;DHT22;10615;42.702;23.314;2023-12-22T06:13:37;4.10;99.90
20911;DHT22;10615;42.702;23.314;2023-12-22T06:14:37;4.10;99.90
20911;DHT22;10615;42.702;23.314;2023-12-22T06:15:38;4.10;99.90
20911;DHT22;10615;42.702;23.314;2023-12-22T06:16:39;4.20;99.90
20911;DHT22;10615;42.702;23.314;2023-12-22T06:17:40;4.10;99.90
20911;DHT22;10615;42.702;23.314;2023-12-22T06:18:41;4.20;99.90
20911;DHT22;10615;42.702;23.314;2023-12-22T06:19:42;4.20;99.90
20911;DHT22;10615;42.702;23.314;2023-12-22T06:20:43;4.20;99.90
20911;DHT22;10615;42.702;23.314;2023-12-22T06:21:43;4.30;99.90
20911;DHT22;10615;42.702;23.314;2023-12-22T06:22:44;4.30;99.90
20911;DHT22;10615;42.702;23.314;2023-12-22T06:23:45;4.30;99.90
20911;DHT22;10615;42.702;23.314;2023-12-22T06:24:45;4.30;99.90
20911;DHT22;10615;42.702;23.314;2023-12-22T06:25:46;4.30;99.90
20911;DHT22;10615;42.702;23.314;2023-12-22T06:26:47;4.30;99.90
20911;DHT22;10615;42.702;23.314;2023-12-22T06:27:48;4.20;99.90
20911;DHT22;10615;42.702;23.314;2023-12-22T06:28:49;4.20;99.90